sensor_id;sensor_type;location;lat;lon;timestamp;temperature;humidity
44047;DHT22;29713;-33.888;151.150;2022-08-01T00:02:25;16.50;99.90
44047;DHT22;29713;-33.888;151.150;2022-08-01T00:04:54;16.70;99.90
44047;DHT22;29713;-33.888;151.150;2022-08-01T00:07:22;16.90;99.90
44047;DHT22;29713;-33.888;151.150;2022-08-01T00:09:49;17.00;99.90
44047;DHT22;29713;-33.888;151.150;2022-08-01T00:12:16;17.10;99.90
44047;DHT22;29713;-33.888;151.150;2022-08-01T00:14:44;17.30;99.90
44047;DHT22;29713;-33.888;151.150;2022-08-01T00:17:11;17.40;99.90
44047;DHT22;29713;-33.888;151.150;2022-08-01T00:19:38;17.50;99.90
44047;DHT22;29713;-33.888;151.150;2022-08-01T00:22:06;17.60;99.90
44047;DHT22;29713;-33.888;151.150;2022-08-01T00:24:33;17.70;99.90
44047;DHT22;29713;-33.888;151.150;2022-08-01T00:27:01;17.80;99.90
44047;DHT22;29713;-33.888;151.150;2022-08-01T00:29:28;17.90;99.90
44047;DHT22;29713;-33.888;151.150;2022-08-01T00:31:56;18.00;99.90
44047;DHT22;29713;-33.888;151.150;2022-08-01T00:34:23;18.10;99.90
44047;DHT22;29713;-33.888;151.150;2022-08-01T00:36:50;18.20;99.90
44047;DHT22;29713;-33.888;151.150;2022-08-01T00:39:18;18.30;99.90
44047;DHT22;29713;-33.888;151.150;2022-08-01T00:41:45;18.50;99.90
44047;DHT22;29713;-33.888;151.150;2022-08-01T00:44:12;18.50;99.90
44047;DHT22;29713;-33.888;151.150;2022-08-01T00:46:39;18.60;99.90
44047;DHT22;29713;-33.888;151.150;2022-08-01T00:49:07;18.70;99.90
44047;DHT22;29713;-33.888;151.150;2022-08-01T00:51:34;18.90;99.90
44047;DHT22;29713;-33.888;151.150;2022-08-01T00:54:02;18.90;99.90
44047;DHT22;29713;-33.888;151.150;2022-08-01T00:56:29;19.00;99.90
44047;DHT22;29713;-33.888;151.150;2022-08-01T00:58:57;19.00;99.90
44047;DHT22;29713;-33.888;151.150;2022-08-01T01:01:25;19.10;99.90
44047;DHT22;29713;-33.888;151.150;2022-08-01T01:03:53;19.20;99.90
44047;DHT22;29713;-33.888;151.150;2022-08-01T01:09:39;19.40;99.90
44047;DHT22;29713;-33.888;151.150;2022-08-01T01:12:22;19.60;99.90
44047;DHT22;29713;-33.888;151.150;2022-08-01T01:17:46;19.90;99.90
44047;DHT22;29713;-33.888;151.150;2022-08-01T01:20:15;19.90;99.90
44047;DHT22;29713;-33.888;151.150;2022-08-01T01:30:24;20.20;99.90
44047;DHT22;29713;-33.888;151.150;2022-08-01T01:32:54;20.30;99.90
44047;DHT22;29713;-33.888;151.150;2022-08-01T01:35:27;20.50;99.90
44047;DHT22;29713;-33.888;151.150;2022-08-01T01:38:03;20.50;99.90
44047;DHT22;29713;-33.888;151.150;2022-08-01T01:40:32;20.60;99.90
44047;DHT22;29713;-33.888;151.150;2022-08-01T01:43:00;20.90;99.90
44047;DHT22;29713;-33.888;151.150;2022-08-01T01:45:27;21.00;99.90
44047;DHT22;29713;-33.888;151.150;2022-08-01T01:47:57;21.10;99.90
44047;DHT22;29713;-33.888;151.150;2022-08-01T01:50:26;21.20;99.90
44047;DHT22;29713;-33.888;151.150;2022-08-01T01:52:54;21.40;99.90
44047;DHT22;29713;-33.888;151.150;2022-08-01T01:55:23;21.40;99.90
44047;DHT22;29713;-33.888;151.150;2022-08-01T01:57:51;21.60;99.90
44047;DHT22;29713;-33.888;151.150;2022-08-01T02:00:19;21.60;99.90
44047;DHT22;29713;-33.888;151.150;2022-08-01T02:02:47;22.00;99.90
44047;DHT22;29713;-33.888;151.150;2022-08-01T02:05:15;22.30;99.90
44047;DHT22;29713;-33.888;151.150;2022-08-01T02:07:44;22.50;99.90
44047;DHT22;29713;-33.888;151.150;2022-08-01T02:10:12;22.70;99.90
44047;DHT22;29713;-33.888;151.150;2022-08-01T02:12:42;22.30;99.90
44047;DHT22;29713;-33.888;151.150;2022-08-01T02:15:12;22.20;99.90
44047;DHT22;29713;-33.888;151.150;2022-08-01T02:17:45;22.10;99.90
44047;DHT22;29713;-33.888;151.150;2022-08-01T02:20:14;22.10;99.90
44047;DHT22;29713;-33.888;151.150;2022-08-01T02:22:53;22.40;99.90
44047;DHT22;29713;-33.888;151.150;2022-08-01T02:25:23;22.10;99.90
44047;DHT22;29713;-33.888;151.150;2022-08-01T02:28:07;21.70;99.90
44047;DHT22;29713;-33.888;151.150;2022-08-01T02:30:37;21.30;99.90
44047;DHT22;29713;-33.888;151.150;2022-08-01T02:33:19;21.00;99.90
44047;DHT22;29713;-33.888;151.150;2022-08-01T02:35:56;21.40;99.90
44047;DHT22;29713;-33.888;151.150;2022-08-01T02:38:27;22.10;99.90
44047;DHT22;29713;-33.888;151.150;2022-08-01T02:40:57;22.80;99.90
44047;DHT22;29713;-33.888;151.150;2022-08-01T02:43:27;23.40;99.90
44047;DHT22;29713;-33.888;151.150;2022-08-01T02:45:59;23.90;99.90
44047;DHT22;29713;-33.888;151.150;2022-08-01T02:48:27;24.10;99.90
44047;DHT22;29713;-33.888;151.150;2022-08-01T02:50:59;23.80;99.90
44047;DHT22;29713;-33.888;151.150;2022-08-01T02:53:32;23.60;99.90
44047;DHT22;29713;-33.888;151.150;2022-08-01T02:56:05;23.60;99.90
44047;DHT22;29713;-33.888;151.150;2022-08-01T02:58:35;23.70;99.90
44047;DHT22;29713;-33.888;151.150;2022-08-01T03:01:06;23.70;99.90
44047;DHT22;29713;-33.888;151.150;2022-08-01T03:03:34;23.70;99.90
44047;DHT22;29713;-33.888;151.150;2022-08-01T03:06:02;23.70;99.90
44047;DHT22;29713;-33.888;151.150;2022-08-01T03:08:31;23.70;99.90
44047;DHT22;29713;-33.888;151.150;2022-08-01T03:11:00;23.80;99.90
44047;DHT22;29713;-33.888;151.150;2022-08-01T03:13:30;23.70;99.90
44047;DHT22;29713;-33.888;151.150;2022-08-01T03:15:59;23.50;99.90
44047;DHT22;29713;-33.888;151.150;2022-08-01T03:18:27;23.70;99.80
44047;DHT22;29713;-33.888;151.150;2022-08-01T03:20:56;23.80;99.80
44047;DHT22;29713;-33.888;151.150;2022-08-01T03:23:27;23.20;99.40
44047;DHT22;29713;-33.888;151.150;2022-08-01T03:25:55;22.50;99.70
44047;DHT22;29713;-33.888;151.150;2022-08-01T03:28:23;22.30;99.90
44047;DHT22;29713;-33.888;151.150;2022-08-01T03:30:51;22.60;99.80
44047;DHT22;29713;-33.888;151.150;2022-08-01T03:33:19;23.00;99.10
44047;DHT22;29713;-33.888;151.150;2022-08-01T03:35:50;23.30;99.00
44047;DHT22;29713;-33.888;151.150;2022-08-01T03:38:22;23.50;98.90
44047;DHT22;29713;-33.888;151.150;2022-08-01T03:41:02;23.80;98.20
44047;DHT22;29713;-33.888;151.150;2022-08-01T03:43:44;24.10;98.40
44047;DHT22;29713;-33.888;151.150;2022-08-01T03:46:20;24.20;97.40
44047;DHT22;29713;-33.888;151.150;2022-08-01T03:48:51;24.30;97.40
44047;DHT22;29713;-33.888;151.150;2022-08-01T03:51:21;24.50;96.30
44047;DHT22;29713;-33.888;151.150;2022-08-01T03:53:50;24.40;94.50
44047;DHT22;29713;-33.888;151.150;2022-08-01T03:56:19;24.20;94.00
44047;DHT22;29713;-33.888;151.150;2022-08-01T03:58:49;24.10;93.60
44047;DHT22;29713;-33.888;151.150;2022-08-01T04:01:17;24.20;93.80
44047;DHT22;29713;-33.888;151.150;2022-08-01T04:03:45;24.10;93.10
44047;DHT22;29713;-33.888;151.150;2022-08-01T04:06:13;24.20;94.10
44047;DHT22;29713;-33.888;151.150;2022-08-01T04:08:40;23.90;93.90
44047;DHT22;29713;-33.888;151.150;2022-08-01T04:11:13;23.70;93.20
44047;DHT22;29713;-33.888;151.150;2022-08-01T04:13:41;23.80;92.20
44047;DHT22;29713;-33.888;151.150;2022-08-01T04:16:10;24.00;91.70
44047;DHT22;29713;-33.888;151.150;2022-08-01T04:18:37;23.90;90.50
44047;DHT22;29713;-33.888;151.150;2022-08-01T04:21:05;23.80;90.30
44047;DHT22;29713;-33.888;151.150;2022-08-01T04:23:34;23.80;90.10
44047;DHT22;29713;-33.888;151.150;2022-08-01T04:26:03;23.80;90.30
44047;DHT22;29713;-33.888;151.150;2022-08-01T04:28:33;23.40;89.80
44047;DHT22;29713;-33.888;151.150;2022-08-01T04:31:03;23.40;90.30
44047;DHT22;29713;-33.888;151.150;2022-08-01T04:33:33;23.40;87.50
44047;DHT22;29713;-33.888;151.150;2022-08-01T04:36:04;23.50;87.70
44047;DHT22;29713;-33.888;151.150;2022-08-01T04:38:34;23.60;86.50
44047;DHT22;29713;-33.888;151.150;2022-08-01T04:41:04;23.70;87.10
44047;DHT22;29713;-33.888;151.150;2022-08-01T04:43:33;23.80;86.60
44047;DHT22;29713;-33.888;151.150;2022-08-01T04:46:02;23.70;84.80
44047;DHT22;29713;-33.888;151.150;2022-08-01T04:48:36;23.30;82.10
44047;DHT22;29713;-33.888;151.150;2022-08-01T04:51:04;23.10;82.80
44047;DHT22;29713;-33.888;151.150;2022-08-01T04:53:38;22.90;83.40
44047;DHT22;29713;-33.888;151.150;2022-08-01T04:56:06;22.80;83.80
44047;DHT22;29713;-33.888;151.150;2022-08-01T04:58:33;22.60;83.00
44047;DHT22;29713;-33.888;151.150;2022-08-01T05:01:00;22.50;82.00
44047;DHT22;29713;-33.888;151.150;2022-08-01T05:03:28;22.30;83.30
44047;DHT22;29713;-33.888;151.150;2022-08-01T05:05:55;22.20;83.80
44047;DHT22;29713;-33.888;151.150;2022-08-01T05:08:22;22.10;82.90
44047;DHT22;29713;-33.888;151.150;2022-08-01T05:10:50;22.00;83.70
44047;DHT22;29713;-33.888;151.150;2022-08-01T05:13:17;22.00;84.10
44047;DHT22;29713;-33.888;151.150;2022-08-01T05:15:44;22.10;84.90
44047;DHT22;29713;-33.888;151.150;2022-08-01T05:18:12;22.00;84.10
44047;DHT22;29713;-33.888;151.150;2022-08-01T05:20:39;21.90;84.60
44047;DHT22;29713;-33.888;151.150;2022-08-01T05:23:08;21.70;85.00
44047;DHT22;29713;-33.888;151.150;2022-08-01T05:25:35;21.50;85.40
44047;DHT22;29713;-33.888;151.150;2022-08-01T05:28:02;21.40;86.60
44047;DHT22;29713;-33.888;151.150;2022-08-01T05:30:30;21.30;86.60
44047;DHT22;29713;-33.888;151.150;2022-08-01T05:32:57;21.20;87.10
44047;DHT22;29713;-33.888;151.150;2022-08-01T05:35:26;21.00;86.70
44047;DHT22;29713;-33.888;151.150;2022-08-01T05:37:53;21.00;86.80
44047;DHT22;29713;-33.888;151.150;2022-08-01T05:40:21;21.00;86.50
44047;DHT22;29713;-33.888;151.150;2022-08-01T05:42:48;20.90;85.90
44047;DHT22;29713;-33.888;151.150;2022-08-01T05:45:15;20.90;86.30
44047;DHT22;29713;-33.888;151.150;2022-08-01T05:47:44;20.80;85.70
44047;DHT22;29713;-33.888;151.150;2022-08-01T05:50:11;20.70;86.40
44047;DHT22;29713;-33.888;151.150;2022-08-01T05:52:39;20.70;86.40
44047;DHT22;29713;-33.888;151.150;2022-08-01T05:55:07;20.70;85.90
44047;DHT22;29713;-33.888;151.150;2022-08-01T05:57:35;20.60;86.30
44047;DHT22;29713;-33.888;151.150;2022-08-01T06:00:03;20.60;86.10
44047;DHT22;29713;-33.888;151.150;2022-08-01T06:02:30;20.60;84.80
44047;DHT22;29713;-33.888;151.150;2022-08-01T06:04:58;20.50;84.80
44047;DHT22;29713;-33.888;151.150;2022-08-01T06:07:25;20.40;84.50
44047;DHT22;29713;-33.888;151.150;2022-08-01T06:09:52;20.40;84.90
44047;DHT22;29713;-33.888;151.150;2022-08-01T06:12:19;20.40;84.50
44047;DHT22;29713;-33.888;151.150;2022-08-01T06:14:47;20.20;85.20
44047;DHT22;29713;-33.888;151.150;2022-08-01T06:17:14;20.10;84.80
44047;DHT22;29713;-33.888;151.150;2022-08-01T06:19:41;19.90;83.60
44047;DHT22;29713;-33.888;151.150;2022-08-01T06:22:10;19.80;85.10
44047;DHT22;29713;-33.888;151.150;2022-08-01T06:24:37;19.80;84.40
44047;DHT22;29713;-33.888;151.150;2022-08-01T06:27:05;19.70;85.30
44047;DHT22;29713;-33.888;151.150;2022-08-01T06:29:32;19.60;85.40
44047;DHT22;29713;-33.888;151.150;2022-08-01T06:32:00;19.50;86.00
44047;DHT22;29713;-33.888;151.150;2022-08-01T06:34:27;19.50;86.80
44047;DHT22;29713;-33.888;151.150;2022-08-01T06:36:54;19.40;85.80
44047;DHT22;29713;-33.888;151.150;2022-08-01T06:39:21;19.40;86.40
44047;DHT22;29713;-33.888;151.150;2022-08-01T06:41:49;19.30;87.10
44047;DHT22;29713;-33.888;151.150;2022-08-01T06:44:16;19.30;87.70
44047;DHT22;29713;-33.888;151.150;2022-08-01T06:46:43;19.10;87.90
44047;DHT22;29713;-33.888;151.150;2022-08-01T06:49:11;19.20;87.80
44047;DHT22;29713;-33.888;151.150;2022-08-01T06:51:38;19.10;87.90
44047;DHT22;29713;-33.888;151.150;2022-08-01T06:54:05;19.00;89.20
44047;DHT22;29713;-33.888;151.150;2022-08-01T06:56:33;19.00;87.90
44047;DHT22;29713;-33.888;151.150;2022-08-01T06:59:01;18.90;89.50
44047;DHT22;29713;-33.888;151.150;2022-08-01T07:01:29;18.80;88.80
44047;DHT22;29713;-33.888;151.150;2022-08-01T07:03:57;18.80;88.10
44047;DHT22;29713;-33.888;151.150;2022-08-01T07:06:25;18.70;88.60
44047;DHT22;29713;-33.888;151.150;2022-08-01T07:08:53;18.60;89.10
44047;DHT22;29713;-33.888;151.150;2022-08-01T07:11:21;18.50;87.80
44047;DHT22;29713;-33.888;151.150;2022-08-01T07:13:49;18.50;88.60
44047;DHT22;29713;-33.888;151.150;2022-08-01T07:16:17;18.50;90.00
44047;DHT22;29713;-33.888;151.150;2022-08-01T07:18:44;18.40;89.20
44047;DHT22;29713;-33.888;151.150;2022-08-01T07:21:12;18.30;89.40
44047;DHT22;29713;-33.888;151.150;2022-08-01T07:23:39;18.20;90.30
44047;DHT22;29713;-33.888;151.150;2022-08-01T07:26:06;18.10;90.20
44047;DHT22;29713;-33.888;151.150;2022-08-01T07:28:33;18.10;90.40
44047;DHT22;29713;-33.888;151.150;2022-08-01T07:31:01;18.00;90.40
44047;DHT22;29713;-33.888;151.150;2022-08-01T07:33:28;18.00;91.10
44047;DHT22;29713;-33.888;151.150;2022-08-01T07:35:55;18.00;91.10
44047;DHT22;29713;-33.888;151.150;2022-08-01T07:38:23;17.90;91.00
44047;DHT22;29713;-33.888;151.150;2022-08-01T07:40:51;17.90;91.40
44047;DHT22;29713;-33.888;151.150;2022-08-01T07:43:18;17.80;91.20
44047;DHT22;29713;-33.888;151.150;2022-08-01T07:45:45;17.80;91.50
44047;DHT22;29713;-33.888;151.150;2022-08-01T07:48:13;17.70;91.50
44047;DHT22;29713;-33.888;151.150;2022-08-01T07:50:40;17.70;92.20
44047;DHT22;29713;-33.888;151.150;2022-08-01T07:53:07;17.70;92.00
44047;DHT22;29713;-33.888;151.150;2022-08-01T07:55:36;17.60;92.30
44047;DHT22;29713;-33.888;151.150;2022-08-01T07:58:03;17.60;92.40
44047;DHT22;29713;-33.888;151.150;2022-08-01T08:00:31;17.60;92.50
44047;DHT22;29713;-33.888;151.150;2022-08-01T08:02:58;17.50;92.80
44047;DHT22;29713;-33.888;151.150;2022-08-01T08:05:29;17.50;93.20
44047;DHT22;29713;-33.888;151.150;2022-08-01T08:07:56;17.40;93.20
44047;DHT22;29713;-33.888;151.150;2022-08-01T08:10:23;17.50;93.40
44047;DHT22;29713;-33.888;151.150;2022-08-01T08:12:51;17.40;93.40
44047;DHT22;29713;-33.888;151.150;2022-08-01T08:15:18;17.30;93.60
44047;DHT22;29713;-33.888;151.150;2022-08-01T08:17:45;17.30;93.80
44047;DHT22;29713;-33.888;151.150;2022-08-01T08:20:13;17.20;93.60
44047;DHT22;29713;-33.888;151.150;2022-08-01T08:22:40;17.20;94.00
44047;DHT22;29713;-33.888;151.150;2022-08-01T08:25:08;17.10;94.10
44047;DHT22;29713;-33.888;151.150;2022-08-01T08:27:36;17.10;94.40
44047;DHT22;29713;-33.888;151.150;2022-08-01T08:30:05;17.10;94.60
44047;DHT22;29713;-33.888;151.150;2022-08-01T08:32:37;17.10;95.20
44047;DHT22;29713;-33.888;151.150;2022-08-01T08:35:05;17.00;94.80
44047;DHT22;29713;-33.888;151.150;2022-08-01T08:37:35;17.00;94.90
44047;DHT22;29713;-33.888;151.150;2022-08-01T08:40:06;16.90;95.10
44047;DHT22;29713;-33.888;151.150;2022-08-01T08:42:34;16.90;95.30
44047;DHT22;29713;-33.888;151.150;2022-08-01T08:45:02;16.90;95.90
44047;DHT22;29713;-33.888;151.150;2022-08-01T08:47:30;16.80;95.90
44047;DHT22;29713;-33.888;151.150;2022-08-01T08:50:00;16.70;95.90
44047;DHT22;29713;-33.888;151.150;2022-08-01T08:52:29;16.70;96.60
44047;DHT22;29713;-33.888;151.150;2022-08-01T08:54:58;16.70;96.90
44047;DHT22;29713;-33.888;151.150;2022-08-01T08:57:26;16.60;97.00
44047;DHT22;29713;-33.888;151.150;2022-08-01T08:59:53;16.60;97.10
44047;DHT22;29713;-33.888;151.150;2022-08-01T09:02:21;16.50;97.50
44047;DHT22;29713;-33.888;151.150;2022-08-01T09:04:50;16.50;97.80
44047;DHT22;29713;-33.888;151.150;2022-08-01T09:07:17;16.40;97.80
44047;DHT22;29713;-33.888;151.150;2022-08-01T09:09:45;16.40;97.90
44047;DHT22;29713;-33.888;151.150;2022-08-01T09:12:17;16.30;98.10
44047;DHT22;29713;-33.888;151.150;2022-08-01T09:14:46;16.30;98.10
44047;DHT22;29713;-33.888;151.150;2022-08-01T09:17:14;16.20;98.30
44047;DHT22;29713;-33.888;151.150;2022-08-01T09:19:45;16.20;98.20
44047;DHT22;29713;-33.888;151.150;2022-08-01T09:22:20;16.20;98.50
44047;DHT22;29713;-33.888;151.150;2022-08-01T09:25:03;16.10;98.40
44047;DHT22;29713;-33.888;151.150;2022-08-01T09:27:31;16.10;98.30
44047;DHT22;29713;-33.888;151.150;2022-08-01T09:30:18;16.00;98.70
44047;DHT22;29713;-33.888;151.150;2022-08-01T09:33:01;16.00;98.60
44047;DHT22;29713;-33.888;151.150;2022-08-01T09:35:31;16.00;99.00
44047;DHT22;29713;-33.888;151.150;2022-08-01T09:38:18;15.90;98.90
44047;DHT22;29713;-33.888;151.150;2022-08-01T09:40:56;15.90;99.50
44047;DHT22;29713;-33.888;151.150;2022-08-01T09:43:29;15.80;99.60
44047;DHT22;29713;-33.888;151.150;2022-08-01T09:45:57;15.80;99.90
44047;DHT22;29713;-33.888;151.150;2022-08-01T09:48:25;15.80;99.90
44047;DHT22;29713;-33.888;151.150;2022-08-01T09:50:54;15.80;99.90
44047;DHT22;29713;-33.888;151.150;2022-08-01T09:53:21;15.70;99.90
44047;DHT22;29713;-33.888;151.150;2022-08-01T09:55:49;15.70;99.90
44047;DHT22;29713;-33.888;151.150;2022-08-01T09:58:18;15.70;99.90
44047;DHT22;29713;-33.888;151.150;2022-08-01T10:00:59;15.60;99.90
44047;DHT22;29713;-33.888;151.150;2022-08-01T10:03:27;15.60;99.90
44047;DHT22;29713;-33.888;151.150;2022-08-01T10:05:56;15.50;99.90
44047;DHT22;29713;-33.888;151.150;2022-08-01T10:08:24;15.50;99.90
44047;DHT22;29713;-33.888;151.150;2022-08-01T10:11:10;15.50;99.90
44047;DHT22;29713;-33.888;151.150;2022-08-01T10:13:38;15.40;99.90
44047;DHT22;29713;-33.888;151.150;2022-08-01T10:16:06;15.40;99.90
44047;DHT22;29713;-33.888;151.150;2022-08-01T10:18:35;15.30;99.90
44047;DHT22;29713;-33.888;151.150;2022-08-01T10:21:03;15.30;99.90
44047;DHT22;29713;-33.888;151.150;2022-08-01T10:23:34;15.30;99.90
44047;DHT22;29713;-33.888;151.150;2022-08-01T10:26:04;15.30;99.90
44047;DHT22;29713;-33.888;151.150;2022-08-01T10:28:32;15.20;99.90
44047;DHT22;29713;-33.888;151.150;2022-08-01T10:31:02;15.20;99.90
44047;DHT22;29713;-33.888;151.150;2022-08-01T10:33:30;15.10;99.90
44047;DHT22;29713;-33.888;151.150;2022-08-01T10:35:57;15.10;99.90
44047;DHT22;29713;-33.888;151.150;2022-08-01T10:38:26;15.10;99.90
44047;DHT22;29713;-33.888;151.150;2022-08-01T10:40:55;15.00;99.90
44047;DHT22;29713;-33.888;151.150;2022-08-01T10:43:24;15.00;99.90
44047;DHT22;29713;-33.888;151.150;2022-08-01T10:45:51;14.90;99.90
44047;DHT22;29713;-33.888;151.150;2022-08-01T10:51:13;14.80;99.90
44047;DHT22;29713;-33.888;151.150;2022-08-01T10:53:55;14.80;99.90
44047;DHT22;29713;-33.888;151.150;2022-08-01T10:56:24;14.70;99.90
44047;DHT22;29713;-33.888;151.150;2022-08-01T10:59:05;14.70;99.90
44047;DHT22;29713;-33.888;151.150;2022-08-01T11:01:32;14.60;99.90
44047;DHT22;29713;-33.888;151.150;2022-08-01T11:04:06;14.60;99.90
44047;DHT22;29713;-33.888;151.150;2022-08-01T11:12:01;14.40;99.90
44047;DHT22;29713;-33.888;151.150;2022-08-01T11:14:30;14.40;99.90
44047;DHT22;29713;-33.888;151.150;2022-08-01T11:20:10;14.50;99.90
44047;DHT22;29713;-33.888;151.150;2022-08-01T11:30:53;14.40;99.90
44047;DHT22;29713;-33.888;151.150;2022-08-01T11:33:47;14.30;99.90
44047;DHT22;29713;-33.888;151.150;2022-08-01T11:39:10;14.20;99.90
44047;DHT22;29713;-33.888;151.150;2022-08-01T11:41:40;14.20;99.90
44047;DHT22;29713;-33.888;151.150;2022-08-01T11:44:19;14.20;99.90
44047;DHT22;29713;-33.888;151.150;2022-08-01T11:46:58;14.30;99.90
44047;DHT22;29713;-33.888;151.150;2022-08-01T11:49:32;14.20;99.90
44047;DHT22;29713;-33.888;151.150;2022-08-01T11:54:52;14.20;99.90
44047;DHT22;29713;-33.888;151.150;2022-08-01T11:57:25;14.00;99.90
44047;DHT22;29713;-33.888;151.150;2022-08-01T11:59:57;13.90;99.90
44047;DHT22;29713;-33.888;151.150;2022-08-01T12:02:27;13.80;99.90
44047;DHT22;29713;-33.888;151.150;2022-08-01T12:04:59;13.80;99.90
44047;DHT22;29713;-33.888;151.150;2022-08-01T12:07:29;13.70;99.90
44047;DHT22;29713;-33.888;151.150;2022-08-01T12:10:00;13.70;99.90
44047;DHT22;29713;-33.888;151.150;2022-08-01T12:12:29;13.80;99.90
44047;DHT22;29713;-33.888;151.150;2022-08-01T12:14:58;13.80;99.90
44047;DHT22;29713;-33.888;151.150;2022-08-01T12:17:41;13.80;99.90
44047;DHT22;29713;-33.888;151.150;2022-08-01T12:20:14;13.80;99.90
44047;DHT22;29713;-33.888;151.150;2022-08-01T12:22:41;13.80;99.90
44047;DHT22;29713;-33.888;151.150;2022-08-01T12:25:12;13.80;99.90
44047;DHT22;29713;-33.888;151.150;2022-08-01T12:27:40;13.80;99.90
44047;DHT22;29713;-33.888;151.150;2022-08-01T12:30:10;13.70;99.90
44047;DHT22;29713;-33.888;151.150;2022-08-01T12:32:39;13.70;99.90
44047;DHT22;29713;-33.888;151.150;2022-08-01T12:37:45;13.50;99.90
44047;DHT22;29713;-33.888;151.150;2022-08-01T12:40:17;13.40;99.90
44047;DHT22;29713;-33.888;151.150;2022-08-01T12:42:50;13.20;99.90
44047;DHT22;29713;-33.888;151.150;2022-08-01T12:45:41;13.10;99.90
44047;DHT22;29713;-33.888;151.150;2022-08-01T12:48:13;13.00;99.90
44047;DHT22;29713;-33.888;151.150;2022-08-01T12:50:47;13.00;99.90
44047;DHT22;29713;-33.888;151.150;2022-08-01T12:53:15;12.80;99.90
44047;DHT22;29713;-33.888;151.150;2022-08-01T12:55:47;12.80;99.90
44047;DHT22;29713;-33.888;151.150;2022-08-01T12:58:17;12.70;99.90
44047;DHT22;29713;-33.888;151.150;2022-08-01T13:00:47;12.70;99.90
44047;DHT22;29713;-33.888;151.150;2022-08-01T13:03:19;12.60;99.90
44047;DHT22;29713;-33.888;151.150;2022-08-01T13:05:52;12.60;99.90
44047;DHT22;29713;-33.888;151.150;2022-08-01T13:08:24;12.50;99.90
44047;DHT22;29713;-33.888;151.150;2022-08-01T13:13:39;12.40;99.90
44047;DHT22;29713;-33.888;151.150;2022-08-01T13:16:08;12.40;99.90
44047;DHT22;29713;-33.888;151.150;2022-08-01T13:18:36;12.30;99.90
44047;DHT22;29713;-33.888;151.150;2022-08-01T13:24:06;12.30;99.90
44047;DHT22;29713;-33.888;151.150;2022-08-01T13:29:36;12.20;99.90
44047;DHT22;29713;-33.888;151.150;2022-08-01T13:32:22;12.20;99.90
44047;DHT22;29713;-33.888;151.150;2022-08-01T13:35:04;12.10;99.90
44047;DHT22;29713;-33.888;151.150;2022-08-01T13:37:32;12.10;99.90
44047;DHT22;29713;-33.888;151.150;2022-08-01T13:39:59;12.00;99.90
44047;DHT22;29713;-33.888;151.150;2022-08-01T13:42:27;12.00;99.90
44047;DHT22;29713;-33.888;151.150;2022-08-01T13:44:55;11.90;99.90
44047;DHT22;29713;-33.888;151.150;2022-08-01T13:47:22;11.90;99.90
44047;DHT22;29713;-33.888;151.150;2022-08-01T13:49:50;11.90;99.90
44047;DHT22;29713;-33.888;151.150;2022-08-01T13:52:17;11.80;99.90
44047;DHT22;29713;-33.888;151.150;2022-08-01T13:54:44;11.80;99.90
44047;DHT22;29713;-33.888;151.150;2022-08-01T13:57:12;11.70;99.90
44047;DHT22;29713;-33.888;151.150;2022-08-01T13:59:40;11.70;99.90
44047;DHT22;29713;-33.888;151.150;2022-08-01T14:02:08;11.70;99.90
44047;DHT22;29713;-33.888;151.150;2022-08-01T14:04:35;11.70;99.90
44047;DHT22;29713;-33.888;151.150;2022-08-01T14:07:02;11.60;99.90
44047;DHT22;29713;-33.888;151.150;2022-08-01T14:09:30;11.70;99.90
44047;DHT22;29713;-33.888;151.150;2022-08-01T14:11:59;11.60;99.90
44047;DHT22;29713;-33.888;151.150;2022-08-01T14:14:27;11.60;99.90
44047;DHT22;29713;-33.888;151.150;2022-08-01T14:16:54;11.50;99.90
44047;DHT22;29713;-33.888;151.150;2022-08-01T14:19:21;11.50;99.90
44047;DHT22;29713;-33.888;151.150;2022-08-01T14:21:48;11.50;99.90
44047;DHT22;29713;-33.888;151.150;2022-08-01T14:24:18;11.50;99.90
44047;DHT22;29713;-33.888;151.150;2022-08-01T14:26:46;11.40;99.90
44047;DHT22;29713;-33.888;151.150;2022-08-01T14:29:13;11.40;99.90
44047;DHT22;29713;-33.888;151.150;2022-08-01T14:31:41;11.40;99.90
44047;DHT22;29713;-33.888;151.150;2022-08-01T14:34:08;11.30;99.90
44047;DHT22;29713;-33.888;151.150;2022-08-01T14:36:35;11.30;99.90
44047;DHT22;29713;-33.888;151.150;2022-08-01T14:39:03;11.30;99.90
44047;DHT22;29713;-33.888;151.150;2022-08-01T14:41:30;11.20;99.90
44047;DHT22;29713;-33.888;151.150;2022-08-01T14:43:58;11.20;99.90
44047;DHT22;29713;-33.888;151.150;2022-08-01T14:46:26;11.10;99.90
44047;DHT22;29713;-33.888;151.150;2022-08-01T14:48:53;11.10;99.90
44047;DHT22;29713;-33.888;151.150;2022-08-01T14:51:20;11.10;99.90
44047;DHT22;29713;-33.888;151.150;2022-08-01T14:53:48;11.10;99.90
44047;DHT22;29713;-33.888;151.150;2022-08-01T14:56:15;11.20;99.90
44047;DHT22;29713;-33.888;151.150;2022-08-01T14:58:43;11.10;99.90
44047;DHT22;29713;-33.888;151.150;2022-08-01T15:01:10;11.20;99.90
44047;DHT22;29713;-33.888;151.150;2022-08-01T15:03:38;11.20;99.90
44047;DHT22;29713;-33.888;151.150;2022-08-01T15:06:05;11.20;99.90
44047;DHT22;29713;-33.888;151.150;2022-08-01T15:08:33;11.30;99.90
44047;DHT22;29713;-33.888;151.150;2022-08-01T15:11:00;11.20;99.90
44047;DHT22;29713;-33.888;151.150;2022-08-01T15:13:27;11.20;99.90
44047;DHT22;29713;-33.888;151.150;2022-08-01T15:15:55;11.30;99.90
44047;DHT22;29713;-33.888;151.150;2022-08-01T15:18:22;11.30;99.90
44047;DHT22;29713;-33.888;151.150;2022-08-01T15:20:49;11.30;99.90
44047;DHT22;29713;-33.888;151.150;2022-08-01T15:23:17;11.30;99.90
44047;DHT22;29713;-33.888;151.150;2022-08-01T15:25:44;11.30;99.90
44047;DHT22;29713;-33.888;151.150;2022-08-01T15:28:11;11.40;99.90
44047;DHT22;29713;-33.888;151.150;2022-08-01T15:30:39;11.40;99.90
44047;DHT22;29713;-33.888;151.150;2022-08-01T15:33:07;11.40;99.90
44047;DHT22;29713;-33.888;151.150;2022-08-01T15:35:34;11.50;99.90
44047;DHT22;29713;-33.888;151.150;2022-08-01T15:38:02;11.50;99.90
44047;DHT22;29713;-33.888;151.150;2022-08-01T15:40:29;11.50;99.90
44047;DHT22;29713;-33.888;151.150;2022-08-01T15:43:00;11.40;99.90
44047;DHT22;29713;-33.888;151.150;2022-08-01T15:45:28;11.30;99.90
44047;DHT22;29713;-33.888;151.150;2022-08-01T15:47:56;11.30;99.90
44047;DHT22;29713;-33.888;151.150;2022-08-01T15:50:23;11.20;99.90
44047;DHT22;29713;-33.888;151.150;2022-08-01T15:52:50;11.20;99.90